createdAt,value
2019-02-28T00:02:29.966Z,20.70
2019-02-28T00:05:06.146Z,19.93
2019-02-28T00:07:38.266Z,20.33
2019-02-28T00:10:06.598Z,19.70
2019-02-28T00:12:34.137Z,19.37
2019-02-28T00:15:01.760Z,20.37
2019-02-28T00:17:30.350Z,20.27
2019-02-28T00:19:59.817Z,20.30
2019-02-28T00:22:33.023Z,20.43
2019-02-28T00:25:04.366Z,20.33
2019-02-28T00:27:40.237Z,20.33
2019-02-28T00:30:12.095Z,20.13
2019-02-28T00:32:48.263Z,20.80
2019-02-28T00:35:15.910Z,20.93
2019-02-28T00:37:45.680Z,20.57
2019-02-28T00:40:18.938Z,20.33
2019-02-28T00:42:50.733Z,21.73
2019-02-28T00:45:18.631Z,20.07
2019-02-28T00:48:00.286Z,19.77
2019-02-28T00:50:28.375Z,19.60
2019-02-28T00:53:06.497Z,18.70
2019-02-28T00:55:37.546Z,20.57
2019-02-28T00:58:07.732Z,21.13
2019-02-28T01:00:37.164Z,19.77
2019-02-28T01:03:05.029Z,21.90
2019-02-28T01:05:32.672Z,20.53
2019-02-28T01:08:00.278Z,20.90
2019-02-28T01:10:30.450Z,20.27
2019-02-28T01:12:58.455Z,20.83
2019-02-28T01:15:26.039Z,20.20
2019-02-28T01:18:00.419Z,21.50
2019-02-28T01:20:27.090Z,19.87
2019-02-28T01:22:58.541Z,20.60
2019-02-28T01:25:24.116Z,20.40
2019-02-28T01:27:56.834Z,20.60
2019-02-28T01:30:26.436Z,21.90
2019-02-28T01:32:55.182Z,21.57
2019-02-28T01:35:24.088Z,21.70
2019-02-28T01:38:01.046Z,21.73
2019-02-28T01:40:29.524Z,22.17
2019-02-28T01:43:01.332Z,22.47
2019-02-28T01:45:31.578Z,21.80
2019-02-28T01:48:09.323Z,20.83
2019-02-28T01:50:37.661Z,21.60
2019-02-28T01:53:12.848Z,22.93
2019-02-28T01:55:40.732Z,20.63
2019-02-28T01:58:09.664Z,23.30
2019-02-28T02:00:37.249Z,23.63
2019-02-28T02:03:09.536Z,26.87
2019-02-28T02:05:37.784Z,27.20
2019-02-28T02:08:07.287Z,28.63
2019-02-28T02:10:34.774Z,28.40
2019-02-28T02:13:13.012Z,28.83
2019-02-28T02:15:50.949Z,29.43
2019-02-28T02:18:21.594Z,28.73
2019-02-28T02:20:49.140Z,28.30
2019-02-28T02:23:18.843Z,28.70
2019-02-28T02:25:46.614Z,28.23
2019-02-28T02:28:14.214Z,27.67
2019-02-28T02:30:50.504Z,27.47
2019-02-28T02:33:15.682Z,27.90
2019-02-28T02:35:46.277Z,26.83
2019-02-28T02:38:16.150Z,26.67
2019-02-28T02:40:45.736Z,25.83
2019-02-28T02:43:13.877Z,27.60
2019-02-28T02:45:43.576Z,26.50
2019-02-28T02:48:17.457Z,26.90
2019-02-28T02:50:45.057Z,27.07
2019-02-28T02:53:14.331Z,26.33
2019-02-28T02:55:49.208Z,25.73
2019-02-28T02:58:26.907Z,27.60
2019-02-28T03:00:51.385Z,27.37
2019-02-28T03:03:26.041Z,28.23
2019-02-28T03:05:55.340Z,29.43
2019-02-28T03:08:26.159Z,31.47
2019-02-28T03:10:55.534Z,32.27
2019-02-28T03:13:23.145Z,29.70
2019-02-28T03:15:50.792Z,31.07
2019-02-28T03:18:22.077Z,33.43
2019-02-28T03:20:52.907Z,34.13
2019-02-28T03:23:27.419Z,33.17
2019-02-28T03:26:05.733Z,34.60
2019-02-28T03:28:33.386Z,33.83
2019-02-28T03:31:11.921Z,35.17
2019-02-28T03:33:30.771Z,34.17
2019-02-28T03:35:58.990Z,34.30
2019-02-28T03:38:26.732Z,34.50
2019-02-28T03:40:54.345Z,34.10
2019-02-28T03:43:25.107Z,34.47
2019-02-28T03:45:55.129Z,34.03
2019-02-28T03:48:26.789Z,32.77
2019-02-28T03:51:00.845Z,34.27
2019-02-28T03:53:28.404Z,31.50
2019-02-28T03:55:58.729Z,33.63
2019-02-28T03:58:27.928Z,33.33
2019-02-28T04:00:59.133Z,30.87
2019-02-28T04:03:33.416Z,31.63
2019-02-28T04:06:03.000Z,29.97
2019-02-28T04:08:36.845Z,29.73
2019-02-28T04:11:08.945Z,29.83
2019-02-28T04:13:36.616Z,29.33
2019-02-28T04:16:09.178Z,30.30
2019-02-28T04:18:46.100Z,30.23
2019-02-28T04:21:18.487Z,29.10
2019-02-28T04:23:46.129Z,29.67
2019-02-28T04:26:13.784Z,29.97
2019-02-28T04:28:42.474Z,30.03
2019-02-28T04:31:18.921Z,30.77
2019-02-28T04:33:42.506Z,30.43
2019-02-28T04:36:12.357Z,33.03
2019-02-28T04:38:40.870Z,33.07
2019-02-28T04:41:11.323Z,33.20
2019-02-28T04:43:45.033Z,32.80
2019-02-28T04:46:16.295Z,32.67
2019-02-28T04:48:49.186Z,32.73
2019-02-28T04:51:20.173Z,32.40
2019-02-28T04:53:52.686Z,31.70
2019-02-28T04:56:17.235Z,32.13
2019-02-28T04:58:48.845Z,33.43
2019-02-28T05:01:20.106Z,33.87
2019-02-28T05:03:52.699Z,35.77
2019-02-28T05:06:28.232Z,35.00
2019-02-28T05:08:58.856Z,35.83
2019-02-28T05:11:33.863Z,36.67
2019-02-28T05:14:04.927Z,34.33
2019-02-28T05:16:33.064Z,36.27
2019-02-28T05:19:02.508Z,35.60
2019-02-28T05:21:31.992Z,35.00
2019-02-28T05:24:00.876Z,36.43
2019-02-28T05:26:31.180Z,36.30
2019-02-28T05:29:00.540Z,36.47
2019-02-28T05:31:30.372Z,36.50
2019-02-28T05:34:03.167Z,35.43
2019-02-28T05:36:30.740Z,34.67
2019-02-28T05:38:58.372Z,36.03
2019-02-28T05:41:26.103Z,38.67
2019-02-28T05:43:54.052Z,36.03
2019-02-28T05:46:23.655Z,37.57
2019-02-28T05:48:52.297Z,38.57
2019-02-28T05:51:20.287Z,38.67
2019-02-28T05:53:50.311Z,39.13
2019-02-28T05:56:37.072Z,38.93
2019-02-28T05:59:07.572Z,38.70
2019-02-28T06:01:35.209Z,37.10
2019-02-28T06:04:04.666Z,38.97
2019-02-28T06:06:34.630Z,36.43
2019-02-28T06:09:04.130Z,35.97
2019-02-28T06:11:37.065Z,36.93
2019-02-28T06:14:08.125Z,37.33
2019-02-28T06:16:39.236Z,37.33
2019-02-28T06:19:08.271Z,36.00
2019-02-28T06:21:36.298Z,36.00
2019-02-28T06:24:03.988Z,36.30
2019-02-28T06:26:38.335Z,34.70
2019-02-28T06:29:13.530Z,36.47
2019-02-28T06:31:45.394Z,35.00
2019-02-28T06:34:14.310Z,34.63
2019-02-28T06:36:43.676Z,36.60
2019-02-28T06:39:11.391Z,34.70
2019-02-28T06:41:41.785Z,37.20
2019-02-28T06:44:10.647Z,37.23
2019-02-28T06:46:43.431Z,37.23
2019-02-28T06:49:10.921Z,37.13
2019-02-28T06:51:42.546Z,34.80
2019-02-28T06:54:11.377Z,35.27
2019-02-28T06:56:39.325Z,35.73
2019-02-28T06:59:12.947Z,35.30
2019-02-28T07:01:46.054Z,34.70
2019-02-28T07:04:18.458Z,33.10
2019-02-28T07:06:55.265Z,34.23
2019-02-28T07:09:26.159Z,32.97
2019-02-28T07:11:54.719Z,32.13
2019-02-28T07:14:23.379Z,32.23
2019-02-28T07:16:51.070Z,31.40
2019-02-28T07:19:18.807Z,33.17
2019-02-28T07:21:55.554Z,31.73
2019-02-28T07:24:25.513Z,30.23
2019-02-28T07:26:59.316Z,31.07
2019-02-28T07:29:29.057Z,31.33
2019-02-28T07:32:01.303Z,29.77
2019-02-28T07:34:28.435Z,31.07
2019-02-28T07:36:58.874Z,30.93
2019-02-28T07:39:31.774Z,32.13
2019-02-28T07:42:02.249Z,31.30
2019-02-28T07:44:28.809Z,31.30
2019-02-28T07:47:04.246Z,32.30
2019-02-28T07:49:35.890Z,32.37
2019-02-28T07:52:07.515Z,32.30
2019-02-28T07:54:35.076Z,31.47
2019-02-28T07:57:03.235Z,32.47
2019-02-28T07:59:32.901Z,31.57
2019-02-28T08:02:03.267Z,30.60
2019-02-28T08:04:31.505Z,32.90
2019-02-28T08:07:00.185Z,31.47
2019-02-28T08:09:29.797Z,31.17
2019-02-28T08:12:05.903Z,31.97
2019-02-28T08:14:33.482Z,31.50
2019-02-28T08:17:01.095Z,31.03
2019-02-28T08:19:28.673Z,31.70
2019-02-28T08:21:56.289Z,31.20
2019-02-28T08:24:26.720Z,30.77
2019-02-28T08:26:54.357Z,31.87
2019-02-28T08:29:22.021Z,32.40
2019-02-28T08:31:53.068Z,30.90
2019-02-28T08:34:23.764Z,32.50
2019-02-28T08:36:50.046Z,31.37
2019-02-28T08:39:28.179Z,33.67
2019-02-28T08:42:02.964Z,31.63
2019-02-28T08:44:26.079Z,31.07
2019-02-28T08:46:53.832Z,33.20
2019-02-28T08:49:21.434Z,33.33
2019-02-28T08:51:51.697Z,32.90
2019-02-28T08:54:19.278Z,32.20
2019-02-28T08:56:51.049Z,31.80
2019-02-28T08:59:21.733Z,33.23
2019-02-28T09:01:50.602Z,31.47
2019-02-28T09:04:18.212Z,33.37
2019-02-28T09:06:48.366Z,31.33
2019-02-28T09:09:15.882Z,33.30
2019-02-28T09:11:44.610Z,34.13
2019-02-28T09:14:14.709Z,34.27
2019-02-28T09:16:44.628Z,34.53
2019-02-28T09:19:19.716Z,33.90
2019-02-28T09:21:52.881Z,32.50
2019-02-28T09:24:21.701Z,35.37
2019-02-28T09:26:58.263Z,35.37
2019-02-28T09:29:29.195Z,34.37
2019-02-28T09:31:58.196Z,36.53
2019-02-28T09:34:26.262Z,36.27
2019-02-28T09:36:56.638Z,35.87
2019-02-28T09:39:23.800Z,37.30
2019-02-28T09:41:51.948Z,36.67
2019-02-28T09:44:31.514Z,37.57
2019-02-28T09:47:00.969Z,37.70
2019-02-28T09:49:32.333Z,37.13
2019-02-28T09:52:03.155Z,37.83
2019-02-28T09:54:30.168Z,39.73
2019-02-28T09:57:01.106Z,40.67
2019-02-28T09:59:37.380Z,40.67
2019-02-28T10:02:07.927Z,42.27
2019-02-28T10:04:33.170Z,42.23
2019-02-28T10:07:05.357Z,43.80
2019-02-28T10:09:32.945Z,47.60
2019-02-28T10:12:00.536Z,46.50
2019-02-28T10:14:30.970Z,48.33
2019-02-28T10:16:59.722Z,46.53
2019-02-28T10:19:29.044Z,49.47
2019-02-28T10:21:56.598Z,48.20
2019-02-28T10:24:24.719Z,48.40
2019-02-28T10:26:52.413Z,49.27
2019-02-28T10:29:20.013Z,49.10
2019-02-28T10:31:47.583Z,51.17
2019-02-28T10:34:15.237Z,51.17
2019-02-28T10:36:47.382Z,50.30
2019-02-28T10:39:13.131Z,50.83
2019-02-28T10:41:40.661Z,50.60
2019-02-28T10:44:08.197Z,49.93
2019-02-28T10:46:36.160Z,50.13
2019-02-28T10:49:03.803Z,51.20
2019-02-28T10:51:31.368Z,50.07
2019-02-28T10:53:58.956Z,49.40
2019-02-28T10:56:31.739Z,46.87
2019-02-28T10:58:55.821Z,46.37
2019-02-28T11:01:24.085Z,44.07
2019-02-28T11:03:51.649Z,43.53
2019-02-28T11:06:19.229Z,43.23
2019-02-28T11:08:49.867Z,42.23
2019-02-28T11:11:17.418Z,42.00
2019-02-28T11:13:45.016Z,39.00
2019-02-28T11:16:12.653Z,39.27
2019-02-28T11:18:41.957Z,37.27
2019-02-28T11:21:09.675Z,32.77
2019-02-28T11:23:37.374Z,32.27
2019-02-28T11:26:06.497Z,32.23
2019-02-28T11:28:34.515Z,32.40
2019-02-28T11:31:02.737Z,30.97
2019-02-28T11:33:30.233Z,28.20
2019-02-28T11:35:59.210Z,28.20
2019-02-28T11:38:26.981Z,26.40
2019-02-28T11:40:57.276Z,27.57
2019-02-28T11:43:23.887Z,25.13
2019-02-28T11:45:56.440Z,24.83
2019-02-28T11:48:30.253Z,26.57
2019-02-28T11:50:57.909Z,26.90
2019-02-28T11:53:25.416Z,20.97
2019-02-28T11:55:53.630Z,19.57
2019-02-28T11:58:21.899Z,18.10
2019-02-28T12:00:49.527Z,17.83
2019-02-28T12:03:17.249Z,12.83
2019-02-28T12:05:50.171Z,12.13
2019-02-28T12:08:16.205Z,10.77
2019-02-28T12:10:43.764Z,10.00
2019-02-28T12:13:11.287Z,10.40
2019-02-28T12:15:39.164Z,8.43
2019-02-28T12:18:06.927Z,8.67
2019-02-28T12:20:34.459Z,8.70
2019-02-28T12:23:02.304Z,7.53
2019-02-28T12:25:29.873Z,7.57
2019-02-28T12:27:59.367Z,7.10
2019-02-28T12:30:26.957Z,6.97
2019-02-28T12:32:54.983Z,6.60
2019-02-28T12:35:22.601Z,7.10
2019-02-28T12:37:50.260Z,6.67
2019-02-28T12:40:20.130Z,6.83
2019-02-28T12:42:47.986Z,6.63
2019-02-28T12:45:17.923Z,6.63
2019-02-28T12:47:45.939Z,6.73
2019-02-28T12:50:13.543Z,6.77
2019-02-28T12:52:41.249Z,6.80
2019-02-28T12:55:12.347Z,6.40
2019-02-28T12:57:40.038Z,6.70
2019-02-28T13:00:11.845Z,6.57
2019-02-28T13:02:39.751Z,6.40
2019-02-28T13:05:14.603Z,6.10
2019-02-28T13:07:39.866Z,6.50
2019-02-28T13:10:08.765Z,6.50
2019-02-28T13:12:36.330Z,8.03
2019-02-28T13:15:05.441Z,8.43
2019-02-28T13:17:33.032Z,7.23
2019-02-28T13:20:00.632Z,8.10
2019-02-28T13:22:28.115Z,8.23
2019-02-28T13:24:55.661Z,7.53
2019-02-28T13:27:26.449Z,7.20
2019-02-28T13:29:55.255Z,7.30
2019-02-28T13:32:22.849Z,7.83
2019-02-28T13:34:50.416Z,7.07
2019-02-28T13:37:19.086Z,6.40
2019-02-28T13:39:46.618Z,6.43
2019-02-28T13:42:14.373Z,6.30
2019-02-28T13:44:44.674Z,5.63
2019-02-28T13:47:14.351Z,5.83
2019-02-28T13:49:41.908Z,5.57
2019-02-28T13:52:09.441Z,4.90
2019-02-28T13:54:38.198Z,4.60
2019-02-28T13:57:09.766Z,4.33
2019-02-28T13:59:36.373Z,4.07
2019-02-28T14:02:06.265Z,3.70
2019-02-28T14:04:33.832Z,3.43
2019-02-28T14:07:01.461Z,3.63
2019-02-28T14:09:29.162Z,3.20
2019-02-28T14:11:58.221Z,4.10
2019-02-28T14:14:25.829Z,3.70
2019-02-28T14:16:53.405Z,3.13
2019-02-28T14:19:21.486Z,4.00
2019-02-28T14:21:49.169Z,3.87
2019-02-28T14:24:16.731Z,3.70
2019-02-28T14:26:49.480Z,4.30
2019-02-28T14:29:17.058Z,4.43
2019-02-28T14:31:44.598Z,4.00
2019-02-28T14:34:12.198Z,3.83
2019-02-28T14:36:41.814Z,3.83
2019-02-28T14:39:11.161Z,3.67
2019-02-28T14:41:38.779Z,3.03
2019-02-28T14:44:06.319Z,3.50
2019-02-28T14:46:34.790Z,3.10
2019-02-28T14:49:02.490Z,3.03
2019-02-28T14:51:30.206Z,2.93
2019-02-28T14:53:57.822Z,3.20
2019-02-28T14:56:25.611Z,2.60
2019-02-28T14:59:02.234Z,1.97
2019-02-28T15:01:29.928Z,2.00
2019-02-28T15:03:57.498Z,1.70
2019-02-28T15:06:26.318Z,2.10
2019-02-28T15:08:54.691Z,2.00
2019-02-28T15:11:22.283Z,3.43
2019-02-28T15:16:38.865Z,1.97
2019-02-28T15:19:06.509Z,1.97
2019-02-28T15:21:34.129Z,2.53
2019-02-28T15:24:01.750Z,3.00
2019-02-28T15:26:29.786Z,2.50
2019-02-28T15:28:58.672Z,3.53
2019-02-28T15:31:26.293Z,3.30
2019-02-28T15:33:55.679Z,3.40
2019-02-28T15:36:24.317Z,2.90
2019-02-28T15:38:53.816Z,3.30
2019-02-28T15:41:21.652Z,2.53
2019-02-28T15:43:50.393Z,2.20
2019-02-28T15:46:19.203Z,2.10
2019-02-28T15:48:46.902Z,2.70
2019-02-28T15:51:15.772Z,2.37
2019-02-28T15:53:43.475Z,2.80
2019-02-28T15:56:13.606Z,2.73
2019-02-28T15:58:56.076Z,2.47
2019-02-28T16:01:23.893Z,2.43
2019-02-28T16:03:58.619Z,2.03
2019-02-28T16:09:27.830Z,1.70
2019-02-28T16:11:55.936Z,2.27
2019-02-28T16:14:24.307Z,1.97
2019-02-28T16:17:03.377Z,1.93
2019-02-28T16:19:29.906Z,2.43
2019-02-28T16:21:57.648Z,1.87
2019-02-28T16:24:25.403Z,2.40
2019-02-28T16:26:53.543Z,2.30
2019-02-28T16:29:22.546Z,2.63
2019-02-28T16:31:50.245Z,2.07
2019-02-28T16:34:22.688Z,2.40
2019-02-28T16:36:50.237Z,2.90
2019-02-28T16:39:18.301Z,2.60
2019-02-28T16:41:49.043Z,2.20
2019-02-28T16:44:19.981Z,2.57
2019-02-28T16:46:54.719Z,2.90
2019-02-28T16:49:22.720Z,2.57
2019-02-28T16:51:50.415Z,2.97
2019-02-28T16:54:19.427Z,2.40
2019-02-28T16:56:48.093Z,2.97
2019-02-28T16:59:18.907Z,2.50
2019-02-28T17:01:46.658Z,2.80
2019-02-28T17:04:17.099Z,2.63
2019-02-28T17:06:55.537Z,2.77
2019-02-28T17:09:33.383Z,2.20
2019-02-28T17:12:23.615Z,2.60
2019-02-28T17:14:50.667Z,3.23
2019-02-28T17:17:29.015Z,4.40
2019-02-28T17:19:56.679Z,2.13
2019-02-28T17:22:26.916Z,2.33
2019-02-28T17:24:55.466Z,1.97
2019-02-28T17:27:44.813Z,1.77
2019-02-28T17:30:57.379Z,1.97
2019-02-28T17:33:25.211Z,1.97
2019-02-28T17:35:52.916Z,2.37
2019-02-28T17:38:27.775Z,1.60
2019-02-28T17:40:55.560Z,2.13
2019-02-28T17:43:24.414Z,2.10
2019-02-28T17:45:52.477Z,2.50
2019-02-28T17:49:17.271Z,2.20
2019-02-28T17:51:55.538Z,2.20
2019-02-28T17:55:02.096Z,2.47
2019-02-28T17:57:55.511Z,2.53
2019-02-28T18:01:16.818Z,2.60
2019-02-28T18:04:21.027Z,2.47
2019-02-28T18:07:26.394Z,2.20
2019-02-28T18:10:15.406Z,2.37
2019-02-28T18:13:16.155Z,2.90
2019-02-28T18:16:27.428Z,3.20
2019-02-28T18:19:33.298Z,3.43
2019-02-28T18:22:28.968Z,3.40
2019-02-28T18:25:53.403Z,3.63
2019-02-28T18:29:01.955Z,4.10
2019-02-28T18:31:29.738Z,5.93
2019-02-28T18:34:00.371Z,4.73
2019-02-28T18:36:46.611Z,5.07
2019-02-28T18:39:44.623Z,3.53
2019-02-28T18:42:27.028Z,4.00
2019-02-28T18:47:59.146Z,4.07
2019-02-28T18:50:26.790Z,4.30
2019-02-28T18:52:56.535Z,5.10
2019-02-28T18:55:24.099Z,4.90
2019-02-28T18:57:54.498Z,5.33
2019-02-28T19:00:22.494Z,5.10
2019-02-28T19:02:52.388Z,5.50
2019-02-28T19:05:23.074Z,6.50
2019-02-28T19:07:53.686Z,6.93
2019-02-28T19:10:27.647Z,6.70
2019-02-28T19:12:55.295Z,7.93
2019-02-28T19:15:22.942Z,7.23
2019-02-28T19:17:50.611Z,7.77
2019-02-28T19:20:18.265Z,7.07
2019-02-28T19:22:45.835Z,7.37
2019-02-28T19:25:13.400Z,8.47
2019-02-28T19:27:43.067Z,7.50
2019-02-28T19:30:11.799Z,8.10
2019-02-28T19:32:39.384Z,8.33
2019-02-28T19:35:07.209Z,8.10
2019-02-28T19:37:34.815Z,8.30
2019-02-28T19:40:03.868Z,8.47
2019-02-28T19:42:31.715Z,8.17
2019-02-28T19:44:59.528Z,7.77
2019-02-28T19:47:27.365Z,8.17
2019-02-28T19:49:55.117Z,8.27
2019-02-28T19:52:24.904Z,9.10
2019-02-28T19:54:52.610Z,9.20
2019-02-28T19:57:20.315Z,10.20
2019-02-28T19:59:47.899Z,9.37
2019-02-28T20:02:15.542Z,9.27
2019-02-28T20:04:43.159Z,9.20
2019-02-28T20:07:10.776Z,9.87
2019-02-28T20:09:38.536Z,10.07
2019-02-28T20:12:06.279Z,9.33
2019-02-28T20:14:33.842Z,10.07
2019-02-28T20:17:15.343Z,10.53
2019-02-28T20:19:42.965Z,10.43
2019-02-28T20:22:11.768Z,11.37
2019-02-28T20:24:39.337Z,10.90
2019-02-28T20:27:07.031Z,10.90
2019-02-28T20:29:34.886Z,11.40
2019-02-28T20:32:02.476Z,11.20
2019-02-28T20:34:30.154Z,11.53
2019-02-28T20:36:58.128Z,12.17
2019-02-28T20:39:26.042Z,10.70
2019-02-28T20:41:53.605Z,11.33
2019-02-28T20:44:21.205Z,11.77
2019-02-28T20:46:48.742Z,11.43
2019-02-28T20:49:16.335Z,11.03
2019-02-28T20:51:43.903Z,11.10
2019-02-28T20:54:11.482Z,11.10
2019-02-28T20:56:41.353Z,10.97
2019-02-28T20:59:10.865Z,11.67
2019-02-28T21:01:40.477Z,10.90
2019-02-28T21:04:08.046Z,10.87
2019-02-28T21:06:35.635Z,9.37
2019-02-28T21:09:05.691Z,9.93
2019-02-28T21:11:33.443Z,9.90
2019-02-28T21:14:01.013Z,8.87
2019-02-28T21:16:31.080Z,9.30
2019-02-28T21:18:58.679Z,7.80
2019-02-28T21:21:26.244Z,8.77
2019-02-28T21:23:53.835Z,8.30
2019-02-28T21:26:21.391Z,8.30
2019-02-28T21:28:50.808Z,7.90
2019-02-28T21:31:22.032Z,8.13
2019-02-28T21:33:49.762Z,8.13
2019-02-28T21:36:17.344Z,8.17
2019-02-28T21:38:44.906Z,8.53
2019-02-28T21:41:12.482Z,8.13
2019-02-28T21:43:40.054Z,8.70
2019-02-28T21:46:07.714Z,7.47
2019-02-28T21:48:35.432Z,8.50
2019-02-28T21:51:02.973Z,7.80
2019-02-28T21:53:30.516Z,8.13
2019-02-28T21:55:58.070Z,7.67
2019-02-28T21:58:26.788Z,9.10
2019-02-28T22:00:54.560Z,8.33
2019-02-28T22:03:22.171Z,7.40
2019-02-28T22:05:51.854Z,9.17
2019-02-28T22:08:20.290Z,8.37
2019-02-28T22:10:47.871Z,10.67
2019-02-28T22:13:15.438Z,8.40
2019-02-28T22:15:43.071Z,8.43
2019-02-28T22:18:10.588Z,8.47
2019-02-28T22:20:41.204Z,9.60
2019-02-28T22:23:09.978Z,7.57
2019-02-28T22:25:37.558Z,7.93
2019-02-28T22:28:05.081Z,6.50
2019-02-28T22:31:01.393Z,6.03
2019-02-28T22:34:00.166Z,7.03
2019-02-28T22:36:31.352Z,7.17
2019-02-28T22:38:58.902Z,7.03
2019-02-28T22:41:26.512Z,6.60
2019-02-28T22:43:54.106Z,6.50
2019-02-28T22:46:21.724Z,6.97
2019-02-28T22:48:49.293Z,6.47
2019-02-28T22:51:16.869Z,6.97
2019-02-28T22:53:44.436Z,6.90
2019-02-28T22:56:14.218Z,6.60
2019-02-28T22:58:42.808Z,6.73
2019-02-28T23:01:14.720Z,6.70
2019-02-28T23:03:42.897Z,7.17
2019-02-28T23:06:10.492Z,6.63
2019-02-28T23:08:39.015Z,7.67
2019-02-28T23:11:06.722Z,7.33
2019-02-28T23:13:34.783Z,6.90
2019-02-28T23:16:02.383Z,6.93
2019-02-28T23:18:29.913Z,7.20
2019-02-28T23:20:57.497Z,6.93
2019-02-28T23:23:25.062Z,7.43
2019-02-28T23:25:52.664Z,7.30
2019-02-28T23:28:25.021Z,7.60
2019-02-28T23:31:37.417Z,7.53
2019-02-28T23:34:13.793Z,7.53
2019-02-28T23:36:41.370Z,8.33
2019-02-28T23:39:09.164Z,7.20
2019-02-28T23:41:36.771Z,7.50
2019-02-28T23:44:04.357Z,7.20
2019-02-28T23:46:31.961Z,8.50
2019-02-28T23:48:59.589Z,7.50
2019-02-28T23:51:27.219Z,7.77
2019-02-28T23:53:54.850Z,8.13
2019-02-28T23:56:22.429Z,7.93
2019-02-28T23:58:50.927Z,7.83
